Airfield :
LOGIN :

Register | Disclaimer

   EN    FR    IT 

 










Legend :    VFR   Marginal VFR   IFR   Intensive IFR   Very Intensive IFR
Visi :
Ceiling :
>= 8 km
>= 3000ft
5 to 8 km
1000 to 3000 ft
1500m to 5 km
500 to 1000 ft
800 to 1500m
200 to 500 ft
< 800m
< 200 ft
Symbols :   Thunderstorms  Fog  Heavy snow  Heavy precipitations  Wind > 20 kt
SIGMETs :     Misc.  Thunderstorms  Icing  Turbulence  Mountain Waves  Volcanic Ashes






- Airport Elevation : 13 ft
- IATA code : CEQ


LFMD - Cannes Mandelieu

CURRENT METAR :
  • 152130Z AUTO 01004KT 340V050 9999 BKN016 BKN040 OVC054 10/09 Q1017

EXPIRED METARs :
  • 152100Z AUTO 01004KT 340V050 9999 FEW018 SCT030 OVC058 10/09 Q1017
  • 152030Z AUTO 01004KT 320V050 9999 SCT056 10/09 Q1017
  • 152000Z AUTO 36003KT 310V030 9999 BKN017 BKN023 BKN044 10/09 Q1017
  • 151930Z AUTO 36003KT 320V050 9999 BKN019 OVC024 10/09 Q1017
  • 151900Z AUTO 36003KT 320V030 9999 BKN020 BKN032 10/09 Q1016 TEMPO BKN014

TAF TAF LFMD
Valid from the 15 at 15:00 until the 16 at 15:00 UTC


151400Z 1515/1615 18010KT 9999 SCT020
BECMG 1516/1518 36005KT
PROB30
TEMPO 1518/1604 BKN014
BECMG 1611/1613 08010KT
ATIS : +33 4 93 48 73 23



MET'MAP, your aeronautical weather chart ! - Copyright ORBIFLY December 2007 - Disclaimer

ORBIFLY MET'MAP TEAM :

Programming & Development : Alexandra Zaïnal
Concept & original design : Baudouin d'Aumeries
Assistance for programming : Marc-Olivier Méhu
Technical & hardware support : Manuel Goepfert

Contact : metmap@orbifly.com




SOURCES & CREDITS :

   NOAA